createdAt,value
2017-03-05T00:00:50.522Z,0
2017-03-05T00:01:50.610Z,0
2017-03-05T00:02:50.653Z,0
2017-03-05T00:03:50.717Z,0
2017-03-05T00:04:50.749Z,0
2017-03-05T00:05:50.806Z,0
2017-03-05T00:06:50.889Z,0
2017-03-05T00:07:50.929Z,0
2017-03-05T00:08:50.988Z,0
2017-03-05T00:09:51.067Z,0
2017-03-05T00:10:51.075Z,0
2017-03-05T00:11:51.151Z,0
2017-03-05T00:12:51.200Z,0
2017-03-05T00:13:51.249Z,0
2017-03-05T00:14:51.316Z,0
2017-03-05T00:15:51.361Z,0
2017-03-05T00:16:51.447Z,0
2017-03-05T00:17:51.466Z,0
2017-03-05T00:18:51.531Z,0
2017-03-05T00:19:51.580Z,0
2017-03-05T00:20:51.655Z,0
2017-03-05T00:21:51.711Z,0
2017-03-05T00:22:51.366Z,0
2017-03-05T00:23:51.797Z,0
2017-03-05T00:24:51.867Z,0
2017-03-05T00:25:51.935Z,0
2017-03-05T00:26:51.954Z,0
2017-03-05T00:27:52.033Z,0
2017-03-05T00:28:52.090Z,0
2017-03-05T00:29:52.131Z,0
2017-03-05T00:30:52.175Z,0
2017-03-05T00:31:52.257Z,0
2017-03-05T00:32:52.293Z,0
2017-03-05T00:33:52.339Z,0
2017-03-05T00:34:52.403Z,0
2017-03-05T00:35:52.450Z,0
2017-03-05T00:36:52.517Z,0
2017-03-05T00:37:52.583Z,0
2017-03-05T00:38:52.627Z,0
2017-03-05T00:39:52.681Z,0
2017-03-05T00:40:52.756Z,0
2017-03-05T00:41:52.801Z,0
2017-03-05T00:42:52.861Z,0
2017-03-05T00:43:52.901Z,0
2017-03-05T00:44:52.944Z,0
2017-03-05T00:45:53.001Z,0
2017-03-05T00:46:53.080Z,0
2017-03-05T00:47:53.119Z,0
2017-03-05T00:48:53.205Z,0
2017-03-05T00:49:53.232Z,0
2017-03-05T00:50:53.300Z,0
2017-03-05T00:51:53.350Z,0
2017-03-05T00:52:53.380Z,0
2017-03-05T00:53:53.448Z,0
2017-03-05T00:54:53.499Z,0
2017-03-05T00:55:53.560Z,0
2017-03-05T00:56:53.613Z,0
2017-03-05T00:57:53.688Z,0
2017-03-05T00:58:53.740Z,0
2017-03-05T00:59:53.797Z,0
2017-03-05T01:00:53.850Z,0
2017-03-05T01:01:53.896Z,0
2017-03-05T01:02:53.989Z,0
2017-03-05T01:03:54.004Z,0
2017-03-05T01:04:54.077Z,0
2017-03-05T01:05:54.139Z,0
2017-03-05T01:06:54.175Z,0
2017-03-05T01:07:54.222Z,0
2017-03-05T01:08:54.279Z,0
2017-03-05T01:09:54.336Z,0
2017-03-05T01:10:54.380Z,0
2017-03-05T01:11:54.454Z,0
2017-03-05T01:12:54.518Z,0
2017-03-05T01:13:54.566Z,0
2017-03-05T01:14:54.598Z,0
2017-03-05T01:15:54.671Z,0
2017-03-05T01:16:54.718Z,0
2017-03-05T01:17:54.779Z,0
2017-03-05T01:18:54.837Z,0
2017-03-05T01:19:54.911Z,0
2017-03-05T01:20:54.950Z,0
2017-03-05T01:21:54.991Z,0
2017-03-05T01:22:55.049Z,0
2017-03-05T01:23:55.118Z,0
2017-03-05T01:24:54.785Z,0
2017-03-05T01:25:55.218Z,0
2017-03-05T01:26:55.277Z,0
2017-03-05T01:27:55.333Z,0
2017-03-05T01:28:55.385Z,0
2017-03-05T01:29:55.419Z,0
2017-03-05T01:30:55.486Z,0
2017-03-05T01:31:55.582Z,0
2017-03-05T01:32:55.624Z,0
2017-03-05T01:33:55.676Z,0
2017-03-05T01:34:55.733Z,0
2017-03-05T01:35:55.799Z,0
2017-03-05T01:36:55.817Z,0
2017-03-05T01:37:55.863Z,0
2017-03-05T01:38:55.940Z,0
2017-03-05T01:39:56.003Z,0
2017-03-05T01:40:56.028Z,0
2017-03-05T01:41:56.097Z,0
2017-03-05T01:42:56.153Z,0
2017-03-05T01:43:56.203Z,0
2017-03-05T01:44:56.281Z,0
2017-03-05T01:45:56.312Z,0
2017-03-05T01:46:56.373Z,0
2017-03-05T01:47:56.437Z,0
2017-03-05T01:48:56.485Z,0
2017-03-05T01:49:56.548Z,0
2017-03-05T01:50:56.601Z,0
2017-03-05T01:51:56.262Z,0
2017-03-05T01:52:56.704Z,0
2017-03-05T01:53:56.765Z,0
2017-03-05T01:54:56.822Z,0
2017-03-05T01:55:57.083Z,0
2017-03-05T01:56:56.925Z,0
2017-03-05T01:57:56.988Z,0
2017-03-05T01:58:57.056Z,0
2017-03-05T01:59:57.105Z,0
2017-03-05T02:01:10.795Z,0
2017-03-05T02:01:57.188Z,0
2017-03-05T02:02:57.263Z,0
2017-03-05T02:03:57.325Z,0
2017-03-05T02:04:57.362Z,0
2017-03-05T02:05:57.461Z,0
2017-03-05T02:06:57.468Z,0
2017-03-05T02:07:57.540Z,0
2017-03-05T02:08:57.586Z,0
2017-03-05T02:09:57.651Z,0
2017-03-05T02:10:57.697Z,0
2017-03-05T02:11:57.763Z,0
2017-03-05T02:12:57.804Z,0
2017-03-05T02:13:57.860Z,0
2017-03-05T02:14:57.937Z,0
2017-03-05T02:15:57.965Z,0
2017-03-05T02:16:58.036Z,0
2017-03-05T02:17:58.084Z,0
2017-03-05T02:18:58.136Z,0
2017-03-05T02:19:58.200Z,0
2017-03-05T02:20:58.267Z,0
2017-03-05T02:21:58.308Z,0
2017-03-05T02:22:58.550Z,0
2017-03-05T02:23:58.442Z,0
2017-03-05T02:24:58.477Z,0
2017-03-05T02:25:58.524Z,0
2017-03-05T02:26:58.568Z,0
2017-03-05T02:28:12.268Z,0
2017-03-05T02:28:58.896Z,0
2017-03-05T02:29:58.755Z,0
2017-03-05T02:30:58.801Z,0
2017-03-05T02:31:58.865Z,0
2017-03-05T02:32:58.913Z,0
2017-03-05T02:33:58.957Z,0
2017-03-05T02:34:58.998Z,0
2017-03-05T02:35:59.069Z,0
2017-03-05T02:36:59.148Z,0
2017-03-05T02:37:59.186Z,0
2017-03-05T02:38:59.245Z,0
2017-03-05T02:39:59.277Z,0
2017-03-05T02:40:59.342Z,0
2017-03-05T02:41:59.384Z,0
2017-03-05T02:42:59.462Z,0
2017-03-05T02:43:59.522Z,0
2017-03-05T02:44:59.547Z,0
2017-03-05T02:45:59.626Z,0
2017-03-05T02:46:59.686Z,0
2017-03-05T02:47:59.754Z,0
2017-03-05T02:48:59.796Z,0
2017-03-05T02:49:59.818Z,0
2017-03-05T02:50:59.899Z,0
2017-03-05T02:51:59.965Z,0
2017-03-05T02:53:00.009Z,0
2017-03-05T02:54:00.059Z,0
2017-03-05T02:55:00.132Z,0
2017-03-05T02:56:00.183Z,0
2017-03-05T02:57:00.429Z,0
2017-03-05T02:58:00.259Z,0
2017-03-05T02:59:00.341Z,0
2017-03-05T03:00:00.384Z,0
2017-03-05T03:01:00.459Z,0
2017-03-05T03:02:00.707Z,0
2017-03-05T03:03:00.756Z,0
2017-03-05T03:04:00.622Z,0
2017-03-05T03:05:00.675Z,0
2017-03-05T03:06:00.727Z,0
2017-03-05T03:07:00.782Z,0
2017-03-05T03:08:01.030Z,0
2017-03-05T03:09:00.889Z,0
2017-03-05T03:10:00.948Z,0
2017-03-05T03:11:00.980Z,0
2017-03-05T03:12:01.087Z,0
2017-03-05T03:13:01.102Z,0
2017-03-05T03:14:01.155Z,0
2017-03-05T03:15:01.205Z,0
2017-03-05T03:16:01.254Z,0
2017-03-05T03:17:01.324Z,0
2017-03-05T03:18:01.374Z,0
2017-03-05T03:19:01.444Z,0
2017-03-05T03:20:01.496Z,0
2017-03-05T03:21:01.577Z,0
2017-03-05T03:22:01.591Z,0
2017-03-05T03:23:01.658Z,0
2017-03-05T03:24:01.332Z,0
2017-03-05T03:25:01.767Z,0
2017-03-05T03:26:01.827Z,0
2017-03-05T03:27:01.869Z,0
2017-03-05T03:28:01.931Z,0
2017-03-05T03:29:01.985Z,0
2017-03-05T03:30:02.045Z,0
2017-03-05T03:31:02.287Z,0
2017-03-05T03:32:02.149Z,0
2017-03-05T03:33:02.190Z,0
2017-03-05T03:34:02.249Z,0
2017-03-05T03:35:02.313Z,0
2017-03-05T03:36:02.351Z,0
2017-03-05T03:37:02.433Z,0
2017-03-05T03:38:02.476Z,0
2017-03-05T03:39:02.564Z,0
2017-03-05T03:40:02.597Z,0
2017-03-05T03:41:02.637Z,0
2017-03-05T03:42:02.921Z,0
2017-03-05T03:43:02.777Z,0
2017-03-05T03:44:02.794Z,0
2017-03-05T03:45:02.898Z,0
2017-03-05T03:46:02.925Z,0
2017-03-05T03:47:02.967Z,0
2017-03-05T03:48:03.007Z,0
2017-03-05T03:49:03.080Z,0
2017-03-05T03:50:03.131Z,0
2017-03-05T03:51:03.184Z,0
2017-03-05T03:52:03.243Z,0
2017-03-05T03:53:03.284Z,0
2017-03-05T03:54:03.351Z,0
2017-03-05T03:55:03.410Z,0
2017-03-05T03:56:03.476Z,0
2017-03-05T03:57:03.520Z,0
2017-03-05T03:58:03.627Z,0
2017-03-05T03:59:03.631Z,0
2017-03-05T04:00:03.691Z,0
2017-03-05T04:01:03.741Z,0
2017-03-05T04:02:03.810Z,0
2017-03-05T04:03:03.849Z,0
2017-03-05T04:04:04.115Z,0
2017-03-05T04:05:03.999Z,0
2017-03-05T04:06:04.012Z,0
2017-03-05T04:07:04.065Z,0
2017-03-05T04:08:04.128Z,0
2017-03-05T04:09:17.431Z,0
2017-03-05T04:10:18.779Z,0
2017-03-05T04:11:04.306Z,0
2017-03-05T04:12:04.357Z,0
2017-03-05T04:13:04.427Z,0
2017-03-05T04:14:04.448Z,0
2017-03-05T04:15:18.138Z,0
2017-03-05T04:16:04.579Z,0
2017-03-05T04:17:04.617Z,0
2017-03-05T04:18:04.672Z,0
2017-03-05T04:19:04.760Z,0
2017-03-05T04:20:04.771Z,0
2017-03-05T04:21:04.824Z,0
2017-03-05T04:22:04.904Z,0
2017-03-05T04:23:04.936Z,0
2017-03-05T04:24:05.015Z,0
2017-03-05T04:25:05.068Z,0
2017-03-05T04:26:05.109Z,0
2017-03-05T04:27:05.162Z,0
2017-03-05T04:28:05.209Z,0
2017-03-05T04:29:05.275Z,0
2017-03-05T04:30:04.963Z,0
2017-03-05T04:31:05.373Z,0
2017-03-05T04:32:05.423Z,0
2017-03-05T04:33:05.512Z,0
2017-03-05T04:34:05.566Z,0
2017-03-05T04:35:05.608Z,0
2017-03-05T04:36:05.650Z,0
2017-03-05T04:37:05.912Z,0
2017-03-05T04:38:05.987Z,0
2017-03-05T04:39:05.831Z,0
2017-03-05T04:40:05.890Z,0
2017-03-05T04:41:05.949Z,0
2017-03-05T04:42:19.260Z,0
2017-03-05T04:43:06.044Z,0
2017-03-05T04:44:06.104Z,0
2017-03-05T04:45:06.150Z,0
2017-03-05T04:46:06.209Z,0
2017-03-05T04:47:06.280Z,0
2017-03-05T04:48:06.321Z,0
2017-03-05T04:49:06.399Z,0
2017-03-05T04:50:06.438Z,0
2017-03-05T04:51:06.515Z,0
2017-03-05T04:52:06.550Z,0
2017-03-05T04:53:06.604Z,0
2017-03-05T04:54:06.633Z,0
2017-03-05T04:55:06.706Z,0
2017-03-05T04:56:06.357Z,0
2017-03-05T04:57:06.853Z,0
2017-03-05T04:58:06.879Z,0
2017-03-05T04:59:06.922Z,0
2017-03-05T05:00:06.980Z,0
2017-03-05T05:01:07.026Z,0
2017-03-05T05:02:07.090Z,0
2017-03-05T05:03:07.143Z,0
2017-03-05T05:04:06.815Z,0
2017-03-05T05:05:07.254Z,0
2017-03-05T05:06:06.927Z,0
2017-03-05T05:07:07.382Z,0
2017-03-05T05:08:07.439Z,0
2017-03-05T05:09:07.457Z,0
2017-03-05T05:10:07.541Z,0
2017-03-05T05:11:07.587Z,0
2017-03-05T05:12:07.637Z,0
2017-03-05T05:13:07.694Z,0
2017-03-05T05:14:07.755Z,0
2017-03-05T05:15:07.838Z,0
2017-03-05T05:16:07.877Z,0
2017-03-05T05:17:07.927Z,0
2017-03-05T05:18:07.587Z,0
2017-03-05T05:19:08.063Z,0
2017-03-05T05:20:07.687Z,0
2017-03-05T05:21:08.131Z,0
2017-03-05T05:22:08.194Z,0
2017-03-05T05:23:08.249Z,0
2017-03-05T05:24:08.303Z,0
2017-03-05T05:25:07.973Z,0
2017-03-05T05:26:08.410Z,0
2017-03-05T05:27:08.455Z,0
2017-03-05T05:28:08.511Z,0
2017-03-05T05:29:08.575Z,0
2017-03-05T05:30:08.620Z,0
2017-03-05T05:31:08.685Z,0
2017-03-05T05:32:08.725Z,0
2017-03-05T05:33:08.770Z,0
2017-03-05T05:34:08.856Z,0
2017-03-05T05:35:08.879Z,0
2017-03-05T05:36:08.968Z,0
2017-03-05T05:37:08.989Z,0
2017-03-05T05:38:09.104Z,4
2017-03-05T05:39:09.099Z,4
2017-03-05T05:40:09.182Z,4
2017-03-05T05:41:09.233Z,4
2017-03-05T05:42:09.270Z,4
2017-03-05T05:43:09.346Z,4
2017-03-05T05:44:09.389Z,4
2017-03-05T05:45:09.446Z,8
2017-03-05T05:46:09.505Z,8
2017-03-05T05:47:09.549Z,8
2017-03-05T05:48:09.608Z,8
2017-03-05T05:49:09.683Z,8
2017-03-05T05:50:09.742Z,12
2017-03-05T05:51:09.794Z,12
2017-03-05T05:52:09.836Z,12
2017-03-05T05:53:09.876Z,16
2017-03-05T05:54:09.933Z,12
2017-03-05T05:55:09.996Z,20
2017-03-05T05:56:10.055Z,20
2017-03-05T05:57:10.103Z,20
2017-03-05T05:58:10.159Z,24
2017-03-05T05:59:10.220Z,24
2017-03-05T06:00:10.293Z,28
2017-03-05T06:01:10.327Z,32
2017-03-05T06:02:10.389Z,36
2017-03-05T06:03:10.423Z,36
2017-03-05T06:04:10.464Z,36
2017-03-05T06:05:10.519Z,40
2017-03-05T06:06:10.588Z,44
2017-03-05T06:07:10.641Z,48
2017-03-05T06:08:10.699Z,52
2017-03-05T06:09:10.764Z,52
2017-03-05T06:10:10.414Z,60
2017-03-05T06:11:10.466Z,60
2017-03-05T06:12:10.542Z,68
2017-03-05T06:13:10.585Z,72
2017-03-05T06:14:11.025Z,76
2017-03-05T06:15:11.099Z,84
2017-03-05T06:16:11.149Z,84
2017-03-05T06:17:11.190Z,92
2017-03-05T06:18:11.264Z,96
2017-03-05T06:19:11.300Z,104
2017-03-05T06:20:11.354Z,108
2017-03-05T06:21:11.022Z,112
2017-03-05T06:22:11.486Z,116
2017-03-05T06:23:11.533Z,120
2017-03-05T06:24:11.194Z,120
2017-03-05T06:25:11.650Z,124
2017-03-05T06:26:11.691Z,128
2017-03-05T06:27:11.745Z,132
2017-03-05T06:28:11.797Z,140
2017-03-05T06:29:11.863Z,140
2017-03-05T06:30:11.524Z,144
2017-03-05T06:31:11.958Z,144
2017-03-05T06:32:12.011Z,148
2017-03-05T06:33:12.077Z,152
2017-03-05T06:34:12.128Z,156
2017-03-05T06:35:12.164Z,164
2017-03-05T06:36:11.858Z,172
2017-03-05T06:37:12.273Z,180
2017-03-05T06:38:12.342Z,192
2017-03-05T06:39:12.410Z,204
2017-03-05T06:40:12.450Z,200
2017-03-05T06:41:12.495Z,196
2017-03-05T06:42:12.574Z,192
2017-03-05T06:43:12.621Z,180
2017-03-05T06:44:12.681Z,172
2017-03-05T06:45:12.751Z,164
2017-03-05T06:46:12.803Z,164
2017-03-05T06:47:12.835Z,156
2017-03-05T06:48:12.896Z,156
2017-03-05T06:49:12.949Z,156
2017-03-05T06:50:13.001Z,156
2017-03-05T06:51:13.046Z,156
2017-03-05T06:52:13.157Z,164
2017-03-05T06:53:13.183Z,168
2017-03-05T06:54:13.220Z,172
2017-03-05T06:55:13.274Z,180
2017-03-05T06:56:13.345Z,188
2017-03-05T06:57:13.378Z,192
2017-03-05T06:58:13.435Z,196
2017-03-05T06:59:13.534Z,196
2017-03-05T07:00:13.556Z,196
2017-03-05T07:01:13.608Z,196
2017-03-05T07:02:13.268Z,196
2017-03-05T07:03:13.697Z,192
2017-03-05T07:04:13.780Z,192
2017-03-05T07:05:13.831Z,192
2017-03-05T07:06:13.881Z,200
2017-03-05T07:07:13.936Z,212
2017-03-05T07:08:13.981Z,232
2017-03-05T07:09:14.041Z,244
2017-03-05T07:10:14.108Z,252
2017-03-05T07:11:14.150Z,260
2017-03-05T07:12:14.220Z,260
2017-03-05T07:13:14.274Z,256
2017-03-05T07:14:14.299Z,252
2017-03-05T07:15:14.369Z,248
2017-03-05T07:16:14.433Z,244
2017-03-05T07:17:14.467Z,240
2017-03-05T07:18:14.525Z,248
2017-03-05T07:19:14.601Z,248
2017-03-05T07:20:14.642Z,252
2017-03-05T07:21:14.714Z,260
2017-03-05T07:22:14.409Z,260
2017-03-05T07:23:14.798Z,260
2017-03-05T07:24:14.846Z,260
2017-03-05T07:25:14.916Z,260
2017-03-05T07:26:14.596Z,264
2017-03-05T07:27:15.048Z,268
2017-03-05T07:28:15.083Z,268
2017-03-05T07:29:15.144Z,272
2017-03-05T07:30:15.192Z,284
2017-03-05T07:31:15.247Z,288
2017-03-05T07:32:15.309Z,300
2017-03-05T07:33:15.392Z,304
2017-03-05T07:34:15.406Z,316
2017-03-05T07:35:15.468Z,328
2017-03-05T07:36:15.515Z,348
2017-03-05T07:37:15.576Z,360
2017-03-05T07:38:15.630Z,364
2017-03-05T07:39:15.694Z,372
2017-03-05T07:40:15.757Z,372
2017-03-05T07:41:15.803Z,380
2017-03-05T07:42:15.864Z,384
2017-03-05T07:43:15.907Z,388
2017-03-05T07:44:15.961Z,392
2017-03-05T07:45:16.000Z,400
2017-03-05T07:46:16.091Z,416
2017-03-05T07:47:16.134Z,432
2017-03-05T07:48:16.209Z,444
2017-03-05T07:49:16.237Z,468
2017-03-05T07:50:16.283Z,484
2017-03-05T07:51:16.338Z,496
2017-03-05T07:52:16.008Z,500
2017-03-05T07:53:16.447Z,512
2017-03-05T07:54:16.493Z,520
2017-03-05T07:55:16.563Z,524
2017-03-05T07:56:16.609Z,532
2017-03-05T07:57:16.675Z,532
2017-03-05T07:58:16.343Z,528
2017-03-05T07:59:16.787Z,508
2017-03-05T08:00:16.859Z,492
2017-03-05T08:01:16.879Z,484
2017-03-05T08:02:16.932Z,484
2017-03-05T08:03:16.987Z,508
2017-03-05T08:04:17.053Z,528
2017-03-05T08:05:17.118Z,516
2017-03-05T08:06:17.162Z,552
2017-03-05T08:07:17.206Z,560
2017-03-05T08:08:17.265Z,580
2017-03-05T08:09:17.347Z,604
2017-03-05T08:10:17.377Z,612
2017-03-05T08:11:17.424Z,632
2017-03-05T08:12:17.488Z,652
2017-03-05T08:13:17.156Z,632
2017-03-05T08:14:17.609Z,636
2017-03-05T08:15:17.675Z,644
2017-03-05T08:16:17.305Z,632
2017-03-05T08:17:17.773Z,656
2017-03-05T08:18:17.812Z,668
2017-03-05T08:19:17.875Z,676
2017-03-05T08:20:17.943Z,700
2017-03-05T08:21:17.974Z,704
2017-03-05T08:22:18.058Z,704
2017-03-05T08:23:17.710Z,708
2017-03-05T08:24:18.146Z,712
2017-03-05T08:25:18.208Z,732
2017-03-05T08:26:17.867Z,732
2017-03-05T08:27:18.317Z,748
2017-03-05T08:28:18.366Z,780
2017-03-05T08:29:18.412Z,796
2017-03-05T08:30:18.492Z,780
2017-03-05T08:31:18.132Z,824
2017-03-05T08:32:18.191Z,848
2017-03-05T08:33:18.268Z,860
2017-03-05T08:34:18.690Z,872
2017-03-05T08:35:18.739Z,880
2017-03-05T08:36:18.791Z,860
2017-03-05T08:37:18.854Z,844
2017-03-05T08:38:18.523Z,864
2017-03-05T08:39:18.964Z,856
2017-03-05T08:40:18.632Z,832
2017-03-05T08:41:18.663Z,784
2017-03-05T08:42:19.124Z,752
2017-03-05T08:43:19.171Z,720
2017-03-05T08:44:18.852Z,708
2017-03-05T08:45:19.287Z,708
2017-03-05T08:46:19.340Z,704
2017-03-05T08:47:19.389Z,708
2017-03-05T08:48:19.439Z,712
2017-03-05T08:49:19.107Z,716
2017-03-05T08:50:19.543Z,700
2017-03-05T08:51:19.615Z,688
2017-03-05T08:52:19.689Z,668
2017-03-05T08:53:19.719Z,668
2017-03-05T08:54:19.766Z,672
2017-03-05T08:55:19.829Z,692
2017-03-05T08:56:19.874Z,708
2017-03-05T08:57:19.934Z,716
2017-03-05T08:58:19.617Z,740
2017-03-05T08:59:20.028Z,740
2017-03-05T09:00:20.114Z,740
2017-03-05T09:01:20.135Z,764
2017-03-05T09:02:20.198Z,772
2017-03-05T09:03:20.263Z,800
2017-03-05T09:04:20.325Z,828
2017-03-05T09:05:20.359Z,864
2017-03-05T09:06:20.419Z,964
2017-03-05T09:07:20.477Z,1036
2017-03-05T09:08:20.526Z,1100
2017-03-05T09:09:20.580Z,1168
2017-03-05T09:10:20.623Z,1228
2017-03-05T09:11:20.680Z,1244
2017-03-05T09:12:20.729Z,1232
2017-03-05T09:13:20.797Z,1232
2017-03-05T09:14:20.869Z,1172
2017-03-05T09:15:20.911Z,1112
2017-03-05T09:16:20.968Z,1036
2017-03-05T09:17:21.006Z,972
2017-03-05T09:18:20.670Z,920
2017-03-05T09:19:21.113Z,900
2017-03-05T09:20:20.769Z,880
2017-03-05T09:21:20.449Z,876
2017-03-05T09:22:20.897Z,880
2017-03-05T09:23:21.319Z,884
2017-03-05T09:24:21.395Z,888
2017-03-05T09:25:21.039Z,880
2017-03-05T09:26:21.102Z,864
2017-03-05T09:27:21.535Z,856
2017-03-05T09:28:21.611Z,860
2017-03-05T09:29:21.658Z,844
2017-03-05T09:30:21.318Z,812
2017-03-05T09:31:21.382Z,804
2017-03-05T09:32:21.806Z,812
2017-03-05T09:33:21.861Z,804
2017-03-05T09:34:21.927Z,780
2017-03-05T09:35:21.971Z,740
2017-03-05T09:36:21.621Z,716
2017-03-05T09:37:22.077Z,708
2017-03-05T09:38:22.114Z,712
2017-03-05T09:39:21.785Z,716
2017-03-05T09:40:22.272Z,720
2017-03-05T09:41:22.289Z,720
2017-03-05T09:42:22.370Z,716
2017-03-05T09:43:22.392Z,716
2017-03-05T09:44:22.488Z,720
2017-03-05T09:45:22.520Z,724
2017-03-05T09:46:22.565Z,736
2017-03-05T09:47:22.613Z,760
2017-03-05T09:48:22.655Z,784
2017-03-05T09:49:22.737Z,808
2017-03-05T09:50:22.771Z,832
2017-03-05T09:51:22.832Z,864
2017-03-05T09:52:22.884Z,896
2017-03-05T09:53:22.574Z,956
2017-03-05T09:54:23.000Z,1012
2017-03-05T09:55:23.037Z,1080
2017-03-05T09:56:23.112Z,1164
2017-03-05T09:57:23.162Z,1248
2017-03-05T09:58:23.214Z,1364
2017-03-05T09:59:23.282Z,1464
2017-03-05T10:00:23.324Z,1560
2017-03-05T10:01:22.986Z,1592
2017-03-05T10:02:23.087Z,1608
2017-03-05T10:03:23.481Z,1652
2017-03-05T10:04:23.565Z,1720
2017-03-05T10:05:23.233Z,1808
2017-03-05T10:06:23.655Z,1896
2017-03-05T10:07:23.716Z,1940
2017-03-05T10:08:23.771Z,2120
2017-03-05T10:09:23.830Z,2456
2017-03-05T10:10:23.483Z,3564
2017-03-05T10:11:23.916Z,2664
2017-03-05T10:12:23.992Z,2328
2017-03-05T10:13:24.057Z,2016
2017-03-05T10:14:24.101Z,1964
2017-03-05T10:15:24.158Z,2120
2017-03-05T10:16:23.817Z,2784
2017-03-05T10:17:24.282Z,4276
2017-03-05T10:18:24.305Z,3944
2017-03-05T10:19:24.358Z,2932
2017-03-05T10:20:24.408Z,2976
2017-03-05T10:21:24.476Z,2240
2017-03-05T10:22:24.140Z,3632
2017-03-05T10:23:24.580Z,3184
2017-03-05T10:24:24.629Z,4800
2017-03-05T10:25:24.700Z,5512
2017-03-05T10:26:24.735Z,2840
2017-03-05T10:27:24.803Z,2904
2017-03-05T10:28:24.860Z,2136
2017-03-05T10:29:24.912Z,2184
2017-03-05T10:30:24.574Z,2196
2017-03-05T10:31:24.625Z,2212
2017-03-05T10:32:24.693Z,2228
2017-03-05T10:33:25.135Z,2296
2017-03-05T10:34:24.820Z,2456
2017-03-05T10:35:25.236Z,2772
2017-03-05T10:36:25.280Z,2584
2017-03-05T10:37:25.329Z,2348
2017-03-05T10:38:25.393Z,2268
2017-03-05T10:39:25.460Z,2300
2017-03-05T10:40:25.573Z,2256
2017-03-05T10:41:25.580Z,2088
2017-03-05T10:42:25.606Z,1960
2017-03-05T10:43:25.685Z,1884
2017-03-05T10:44:25.733Z,1808
2017-03-05T10:45:25.783Z,1772
2017-03-05T10:46:25.066Z,1800
2017-03-05T10:47:25.517Z,1800
2017-03-05T10:48:25.946Z,1752
2017-03-05T10:49:26.030Z,1624
2017-03-05T10:50:26.051Z,1548
2017-03-05T10:51:26.112Z,1492
2017-03-05T10:52:26.150Z,1460
2017-03-05T10:53:25.453Z,1516
2017-03-05T10:54:26.258Z,1608
2017-03-05T10:55:26.324Z,1732
2017-03-05T10:56:26.403Z,1804
2017-03-05T10:57:26.424Z,1860
2017-03-05T10:58:26.511Z,1824
2017-03-05T10:59:26.546Z,1844
2017-03-05T11:00:25.826Z,1920
2017-03-05T11:01:26.666Z,1880
2017-03-05T11:02:26.712Z,1952
2017-03-05T11:03:26.393Z,2204
2017-03-05T11:04:26.849Z,2380
2017-03-05T11:05:26.507Z,2288
2017-03-05T11:06:26.946Z,2184
2017-03-05T11:07:27.015Z,2196
2017-03-05T11:08:27.045Z,2264
2017-03-05T11:09:27.100Z,2356
2017-03-05T11:10:27.161Z,2284
2017-03-05T11:11:26.831Z,2356
2017-03-05T11:12:26.490Z,2372
2017-03-05T11:13:27.307Z,2380
2017-03-05T11:14:27.369Z,3028
2017-03-05T11:15:27.441Z,4748
2017-03-05T11:16:27.490Z,3888
2017-03-05T11:17:27.540Z,3720
2017-03-05T11:18:27.597Z,4160
2017-03-05T11:19:27.245Z,8440
2017-03-05T11:20:27.707Z,17384
2017-03-05T11:21:27.369Z,8648
2017-03-05T11:22:27.817Z,6260
2017-03-05T11:23:27.885Z,6604
2017-03-05T11:24:27.908Z,4248
2017-03-05T11:25:27.992Z,3600
2017-03-05T11:26:28.029Z,4440
2017-03-05T11:27:28.067Z,16996
2017-03-05T11:28:28.123Z,39072
2017-03-05T11:29:28.192Z,10200
2017-03-05T11:30:28.257Z,6416
2017-03-05T11:31:28.318Z,37280
2017-03-05T11:32:28.355Z,43296
2017-03-05T11:33:28.033Z,19948
2017-03-05T11:34:28.484Z,10808
2017-03-05T11:35:28.525Z,6592
2017-03-05T11:36:28.602Z,28224
2017-03-05T11:37:28.672Z,45760
2017-03-05T11:38:28.298Z,57184
2017-03-05T11:39:28.747Z,19808
2017-03-05T11:40:28.404Z,57152
2017-03-05T11:41:28.464Z,61152
2017-03-05T11:42:28.915Z,13936
2017-03-05T11:43:28.974Z,20736
2017-03-05T11:44:29.032Z,11232
2017-03-05T11:45:29.080Z,22592
2017-03-05T11:46:29.129Z,4636
2017-03-05T11:47:29.185Z,5708
2017-03-05T11:48:29.240Z,7076
2017-03-05T11:49:29.280Z,14428
2017-03-05T11:50:29.343Z,5032
2017-03-05T11:51:29.411Z,7392
2017-03-05T11:52:29.454Z,54720
2017-03-05T11:53:29.526Z,55616
2017-03-05T11:54:29.570Z,43296
2017-03-05T11:55:29.666Z,11824
2017-03-05T11:56:29.678Z,22080
2017-03-05T11:57:29.761Z,32160
2017-03-05T11:58:29.788Z,12996
2017-03-05T11:59:29.856Z,11212
2017-03-05T12:00:29.906Z,8068
2017-03-05T12:01:29.963Z,9632
2017-03-05T12:02:30.013Z,11668
2017-03-05T12:03:30.120Z,10648
2017-03-05T12:04:30.149Z,14396
2017-03-05T12:05:30.178Z,10604
2017-03-05T12:06:30.228Z,15568
2017-03-05T12:07:30.288Z,26208
2017-03-05T12:08:30.335Z,38912
2017-03-05T12:09:30.420Z,35616
2017-03-05T12:10:30.063Z,44096
2017-03-05T12:11:30.533Z,47552
2017-03-05T12:12:30.580Z,31648
2017-03-05T12:13:30.633Z,27104
2017-03-05T12:14:30.675Z,46368
2017-03-05T12:15:30.739Z,63328
2017-03-05T12:16:30.774Z,66400
2017-03-05T12:17:30.841Z,77056
2017-03-05T12:18:30.960Z,74944
2017-03-05T12:19:30.946Z,70816
2017-03-05T12:20:31.026Z,73056
2017-03-05T12:21:31.071Z,65760
2017-03-05T12:22:31.120Z,66144
2017-03-05T12:23:31.183Z,60544
2017-03-05T12:24:31.224Z,57056
2017-03-05T12:25:31.310Z,51264
2017-03-05T12:26:31.348Z,44064
2017-03-05T12:27:31.394Z,37024
2017-03-05T12:28:31.460Z,28448
2017-03-05T12:29:31.520Z,26336
2017-03-05T12:30:31.596Z,31552
2017-03-05T12:31:31.640Z,42496
2017-03-05T12:32:31.693Z,46272
2017-03-05T12:33:31.754Z,45248
2017-03-05T12:34:31.797Z,62464
2017-03-05T12:35:31.861Z,64960
2017-03-05T12:36:31.910Z,55136
2017-03-05T12:37:31.965Z,53088
2017-03-05T12:38:32.011Z,46240
2017-03-05T12:39:32.102Z,47488
2017-03-05T12:40:32.156Z,50624
2017-03-05T12:41:32.195Z,50336
2017-03-05T12:42:32.243Z,52992
2017-03-05T12:43:32.301Z,61152
2017-03-05T12:44:32.349Z,66144
2017-03-05T12:45:32.422Z,59488
2017-03-05T12:46:32.479Z,61376
2017-03-05T12:47:32.153Z,59104
2017-03-05T12:48:32.598Z,55744
2017-03-05T12:49:32.646Z,53376
2017-03-05T12:50:32.697Z,55232
2017-03-05T12:51:32.765Z,59456
2017-03-05T12:52:32.827Z,56704
2017-03-05T12:53:32.473Z,57792
2017-03-05T12:54:32.939Z,62976
2017-03-05T12:55:32.599Z,59104
2017-03-05T12:56:33.046Z,58624
2017-03-05T12:57:33.074Z,54976
2017-03-05T12:58:33.135Z,51456
2017-03-05T12:59:33.188Z,53184
2017-03-05T13:00:32.874Z,53248
2017-03-05T13:01:33.295Z,50336
2017-03-05T13:02:33.362Z,55072
2017-03-05T13:03:33.417Z,51648
2017-03-05T13:04:33.475Z,49248
2017-03-05T13:05:33.542Z,48704
2017-03-05T13:06:33.589Z,41856
2017-03-05T13:07:33.670Z,38336
2017-03-05T13:08:33.740Z,39520
2017-03-05T13:09:33.760Z,37472
2017-03-05T13:10:33.811Z,37312
2017-03-05T13:11:33.871Z,43168
2017-03-05T13:12:33.928Z,35456
2017-03-05T13:13:33.996Z,37216
2017-03-05T13:14:34.051Z,50912
2017-03-05T13:15:33.717Z,51968
2017-03-05T13:16:34.151Z,49376
2017-03-05T13:17:34.202Z,52800
2017-03-05T13:18:34.258Z,51648
2017-03-05T13:19:34.315Z,46336
2017-03-05T13:20:34.372Z,46432
2017-03-05T13:21:34.447Z,41280
2017-03-05T13:22:34.500Z,45504
2017-03-05T13:23:34.552Z,47008
2017-03-05T13:24:34.609Z,49568
2017-03-05T13:25:34.644Z,47840
2017-03-05T13:26:34.736Z,48672
2017-03-05T13:27:34.771Z,51200
2017-03-05T13:28:34.847Z,51264
2017-03-05T13:29:34.880Z,46784
2017-03-05T13:30:34.930Z,46240
2017-03-05T13:31:34.970Z,47104
2017-03-05T13:32:35.051Z,44864
2017-03-05T13:33:35.088Z,22816
2017-03-05T13:34:35.139Z,45664
2017-03-05T13:35:35.198Z,48672
2017-03-05T13:36:35.255Z,32128
2017-03-05T13:37:35.317Z,35008
2017-03-05T13:38:35.379Z,42912
2017-03-05T13:39:35.444Z,39552
2017-03-05T13:40:35.470Z,31744
2017-03-05T13:41:35.529Z,36288
2017-03-05T13:42:35.591Z,33024
2017-03-05T13:43:35.653Z,37760
2017-03-05T13:44:35.725Z,31680
2017-03-05T13:45:35.768Z,21184
2017-03-05T13:46:35.830Z,15488
2017-03-05T13:47:35.509Z,7192
2017-03-05T13:48:35.533Z,4120
2017-03-05T13:49:36.008Z,3896
2017-03-05T13:50:36.048Z,3712
2017-03-05T13:51:36.084Z,3544
2017-03-05T13:52:36.128Z,3360
2017-03-05T13:53:36.202Z,3184
2017-03-05T13:54:35.892Z,2996
2017-03-05T13:55:36.320Z,2808
2017-03-05T13:56:36.365Z,2696
2017-03-05T13:57:36.430Z,2644
2017-03-05T13:58:36.470Z,2608